Data for 03/07/2006

Time Sea-Level Adjusted Pressure Absolute Pressure Temperature Relative Humidity Dew Point   
(mb) (inHg) (mb) (inHg) (C) (F) (%) (C) (F)
00:05 1009 29.8 838 24.75 4.9 40.7 64 -1.4 29.4
00:10 1009 29.8 838 24.75 4.5 40.1 65 -1.6 29.1
00:15 1009 29.8 838 24.75 4 39.3 66 -1.7 29
00:20 1009 29.8 838 24.75 3.8 38.9 67 -1.8 28.8
00:25 1009 29.8 838 24.75 4 39.1 66 -1.9 28.6
00:30 1009 29.8 838 24.75 4.1 39.3 65 -1.9 28.5
00:35 1009 29.8 838 24.75 4.3 39.8 64 -1.8 28.7
00:40 1009 29.8 838 24.75 4.1 39.4 66 -1.6 29.1
00:45 1009 29.8 838 24.75 3.9 39 67 -1.8 28.8
00:50 1009 29.8 838 24.75 3.6 38.6 66 -2 28.4
00:55 1009 29.8 838 24.75 4.1 39.3 65 -2 28.5
01:00 1009 29.8 838 24.75 4.4 40 61 -2.4 27.8
01:05 1009 29.8 838 24.75 4.9 40.8 60 -2.1 28.1
01:10 1009 29.8 838 24.75 4.1 39.4 67 -1.5 29.3
01:15 1009 29.8 838 24.75 3.8 38.9 66 -1.9 28.6
01:20 1009 29.8 838 24.75 3.7 38.6 69 -1.6 29.2
01:25 1009 29.8 839 24.78 3.6 38.4 66 -2.1 28.2
01:30 1009 29.8 839 24.78 4.1 39.4 63 -2.2 28.1
01:35 1009 29.8 839 24.78 4.5 40 63 -2.1 28.3
01:40 1010 29.83 839 24.78 3.8 38.9 66 -2 28.4
01:45 1010 29.83 839 24.78 4.1 39.3 63 -2.4 27.7
01:50 1010 29.83 839 24.78 4.4 40 62 -2.2 28
01:55 1010 29.83 839 24.78 4.4 39.8 65 -1.7 28.9
02:00 1010 29.83 839 24.78 3.9 39 66 -1.9 28.5
02:05 1010 29.83 839 24.78 3.9 39 65 -2.1 28.2
02:10 1010 29.83 839 24.78 3.9 39 66 -1.9 28.6
02:15 1010 29.83 839 24.78 3.6 38.5 67 -1.9 28.7
02:20 1010 29.83 840 24.81 3.4 38 72 -1.2 29.9
02:25 1011 29.85 840 24.81 2.9 37.2 75 -1.1 30.1
02:30 1011 29.85 840 24.81 2.7 36.8 76 -1.2 29.8
02:35 1011 29.85 840 24.81 2.5 36.6 76 -1.2 29.8
02:40 1011 29.85 840 24.81 2.5 36.6 77 -1.2 29.9
02:45 1011 29.85 840 24.81 2.4 36.4 78 -1.1 30.1
02:50 1011 29.85 840 24.81 2.2 35.9 83 -0.5 31.1
02:55 1011 29.85 840 24.81 2 35.5 84 -0.4 31.3
03:00 1011 29.85 840 24.81 1.9 35.4 84 -0.5 31.2
03:05 1011 29.85 840 24.81 1.9 35.4 85 -0.4 31.3
03:10 1011 29.85 840 24.81 1.9 35.4 85 -0.4 31.3
03:15 1011 29.85 840 24.81 2 35.5 85 -0.3 31.4
03:20 1011 29.85 840 24.81 2 35.6 85 -0.3 31.5
03:25 1011 29.85 840 24.81 2 35.7 84 -0.3 31.4
03:30 1011 29.85 840 24.81 2.2 35.9 84 -0.3 31.5
03:35 1011 29.85 841 24.83 2.1 35.8 84 -0.3 31.5
03:40 1011 29.85 841 24.83 1.8 35.2 89 0.1 32.2
03:45 1011 29.85 841 24.83 1.3 34.3 92 0.1 32.2
03:50 1011 29.85 841 24.83 1 33.8 94 0.1 32.1
03:55 1011 29.85 840 24.81 0.8 33.5 95 0.1 32.1
04:00 1011 29.85 840 24.81 0.8 33.4 95 0.1 32.2
04:05 1011 29.85 841 24.83 0.8 33.4 95 0.1 32.1
04:10 1011 29.85 840 24.81 0.8 33.4 96 0.1 32.3
04:15 1011 29.85 840 24.81 0.7 33.3 95 0.1 32.1
04:20 1011 29.85 840 24.81 0.6 33 96 -0 32
04:25 1011 29.85 840 24.81 0.6 33.1 96 0 32
04:30 1011 29.85 841 24.83 0.6 33.1 96 0.1 32.1
04:35 1011 29.85 841 24.83 0.5 32.9 96 -0 32
04:40 1011 29.85 841 24.83 0.3 32.6 97 -0.1 31.8
04:45 1011 29.85 841 24.83 0.2 32.4 98 -0.1 31.7
04:50 1011 29.85 841 24.83 0.2 32.3 98 -0.2 31.7
04:55 1011 29.85 841 24.83 0.2 32.3 98 -0.1 31.8
05:00 1011 29.85 841 24.83 0.2 32.3 98 -0.1 31.8
05:05 1012 29.88 841 24.83 0.2 32.4 98 -0.1 31.8
05:10 1012 29.88 841 24.83 0.3 32.6 97 -0.1 31.8
05:15 1012 29.88 841 24.83 0.3 32.6 97 -0.1 31.8
05:20 1012 29.88 841 24.83 0.4 32.7 96 -0.1 31.7
05:25 1012 29.88 841 24.83 0.4 32.7 95 -0.3 31.5
05:30 1012 29.88 841 24.83 0.4 32.7 94 -0.4 31.3
05:35 1012 29.88 841 24.83 0.4 32.7 94 -0.4 31.3
05:40 1012 29.88 841 24.83 0.2 32.3 95 -0.5 31.1
05:45 1012 29.88 841 24.83 0.2 32.4 96 -0.4 31.2
05:50 1012 29.88 841 24.83 0.2 32.4 95 -0.5 31.1
05:55 1012 29.88 841 24.83 0.2 32.4 95 -0.5 31.1
06:00 1012 29.88 841 24.83 0.4 32.6 94 -0.5 31.1
06:05 1012 29.88 841 24.83 0.5 32.9 93 -0.5 31.2
06:10 1012 29.88 841 24.83 0.5 32.9 93 -0.5 31.1
06:15 1012 29.88 841 24.83 0.3 32.5 94 -0.6 30.9
06:20 1012 29.88 841 24.83 0 32.1 95 -0.7 30.7
06:25 1012 29.88 841 24.83 -0.1 31.8 95 -0.8 30.6
06:30 1012 29.88 841 24.83 -0.2 31.7 95 -0.9 30.4
06:35 1012 29.88 841 24.83 -0.1 31.9 95 -0.8 30.6
06:40 1012 29.88 841 24.83 -0 32 94 -0.9 30.3
06:45 1012 29.88 841 24.83 0.4 32.7 91 -0.9 30.4
06:50 1012 29.88 841 24.83 0.6 33.1 90 -0.9 30.4
06:55 1012 29.88 841 24.83 0.5 32.9 90 -0.9 30.3
07:00 1012 29.88 841 24.83 0.7 33.2 89 -0.9 30.3
07:05 1012 29.88 841 24.83 0.6 33.1 89 -1 30.2
07:10 1012 29.88 841 24.83 0.6 33 89 -1.1 30.1
07:15 1012 29.88 841 24.83 0 32 92 -1.2 29.9
07:20 1012 29.88 841 24.83 -0.2 31.6 92 -1.3 29.6
07:25 1012 29.88 841 24.83 -0 31.9 90 -1.5 29.3
07:30 1012 29.88 841 24.83 0.1 32.1 90 -1.4 29.5
07:35 1012 29.88 841 24.83 0.1 32.2 88 -1.7 29
07:40 1012 29.88 841 24.83 0.5 32.8 86 -1.6 29.1
07:45 1012 29.88 841 24.83 0.3 32.5 87 -1.7 29
07:50 1012 29.88 841 24.83 1.5 34.7 80 -1.6 29
07:55 1012 29.88 841 24.83 2.6 36.6 75 -1.3 29.6
08:00 1012 29.88 841 24.83 2.5 36.6 74 -1.6 29.1
08:05 1012 29.88 841 24.83 2.9 37.3 74 -1.2 29.8
08:10 1012 29.88 841 24.83 4.2 39.6 65 -1.9 28.6
08:15 1012 29.88 841 24.83 5.2 41.3 64 -1 30.1
08:20 1012 29.88 841 24.83 5.4 41.8 63 -1.1 30
08:25 1012 29.88 841 24.83 5.1 41.3 65 -0.8 30.5
08:30 1012 29.88 841 24.83 4.6 40.2 69 -0.6 30.9
08:35 1012 29.88 841 24.83 4.3 39.8 72 -0.4 31.4
08:40 1012 29.88 841 24.83 3.9 39 73 -0.5 31
08:45 1012 29.88 841 24.83 3.5 38.3 76 -0.4 31.4
08:50 1012 29.88 842 24.86 2.9 37.3 77 -0.6 30.8
08:55 1012 29.88 842 24.86 3.8 38.9 71 -0.9 30.5
09:00 1012 29.88 842 24.86 4.2 39.6 73 -0.3 31.5
09:05 1012 29.88 842 24.86 5 41.1 68 -0.3 31.4
09:10 1012 29.88 842 24.86 5.1 41.1 72 0.4 32.7
09:15 1012 29.88 842 24.86 4 39.2 75 -0 32
09:20 1012 29.88 842 24.86 4.4 39.9 72 -0.3 31.4
09:25 1012 29.88 842 24.86 4.8 40.6 71 -0.1 31.9
09:30 1013 29.91 842 24.86 4.4 39.9 73 -0 31.9
09:35 1013 29.91 842 24.86 3.9 39.1 74 -0.2 31.6
09:40 1013 29.91 842 24.86 3.6 38.5 79 0.3 32.6
09:45 1013 29.91 842 24.86 3.2 37.7 79 -0.1 31.8
09:50 1013 29.91 842 24.86 3.1 37.6 77 -0.4 31.2
09:55 1013 29.91 842 24.86 3 37.4 78 -0.5 31.1
10:00 1013 29.91 842 24.86 2.9 37.3 79 -0.4 31.3
10:05 1013 29.91 842 24.86 3 37.3 80 -0.2 31.6
10:10 1013 29.91 842 24.86 2.8 37.1 80 -0.3 31.4
10:15 1013 29.91 842 24.86 2.8 37.1 81 -0.2 31.7
10:20 1013 29.91 842 24.86 2.9 37.2 80 -0.3 31.5
10:25 1013 29.91 842 24.86 3.2 37.8 77 -0.5 31.1
10:30 1013 29.91 842 24.86 2.9 37.1 80 -0.2 31.7
10:35 1013 29.91 842 24.86 3.1 37.7 72 -1.5 29.3
10:40 1013 29.91 842 24.86 3 37.4 74 -1.2 29.9
10:45 1013 29.91 842 24.86 3.6 38.4 71 -1.2 29.8
10:50 1013 29.91 842 24.86 3.9 39 69 -1.2 29.8
10:55 1013 29.91 842 24.86 4.8 40.7 67 -0.8 30.6
11:00 1013 29.91 842 24.86 4.8 40.6 67 -0.8 30.5
11:05 1013 29.91 842 24.86 5 40.9 66 -0.8 30.6
11:10 1013 29.91 842 24.86 5.2 41.4 66 -0.6 30.9
11:15 1013 29.91 842 24.86 5.5 41.9 65 -0.5 31
11:20 1013 29.91 842 24.86 5.2 41.4 65 -0.7 30.7
11:25 1013 29.91 842 24.86 5.3 41.5 65 -0.6 30.8
11:30 1013 29.91 842 24.86 5.8 42.5 58 -1.7 28.9
11:35 1012 29.88 842 24.86 6.5 43.7 49 -3.4 25.8
11:40 1012 29.88 842 24.86 6.3 43.4 47 -4.2 24.4
11:45 1012 29.88 842 24.86 6.4 43.5 49 -3.6 25.6
11:50 1012 29.88 841 24.83 6.2 43.2 37 -7.4 18.6
11:55 1012 29.88 841 24.83 6.6 43.9 34 -8.3 17
12:00 1012 29.88 841 24.83 6.8 44.3 30 -9.6 14.8
12:05 1012 29.88 841 24.83 6.8 44.2 33 -8.4 16.9
12:10 1012 29.88 841 24.83 7.3 45.2 31 -8.6 16.5
12:15 1012 29.88 841 24.83 7.5 45.5 32 -8.3 17.1
12:20 1012 29.88 841 24.83 7.5 45.5 47 -3 26.6
12:25 1012 29.88 841 24.83 7 44.7 48 -3.1 26.4
12:30 1012 29.88 841 24.83 7.2 45 47 -3.2 26.2
12:35 1012 29.88 841 24.83 7.5 45.5 48 -2.9 26.8
12:40 1012 29.88 841 24.83 6.8 44.2 44 -4.6 23.6
12:45 1012 29.88 841 24.83 5.7 42.2 48 -4.4 24
12:50 1012 29.88 841 24.83 5.8 42.4 45 -5.3 22.5
12:55 1012 29.88 841 24.83 6.1 42.9 44 -5.2 22.7
13:00 1012 29.88 841 24.83 7.2 45 41 -5.2 22.6
13:05 1012 29.88 841 24.83 7.2 44.9 41 -5.1 22.9
13:10 1012 29.88 841 24.83 6.7 44 39 -6.2 20.9
13:15 1012 29.88 841 24.83 6.7 44 35 -7.7 18.2
13:20 1012 29.88 841 24.83 7.2 44.9 40 -5.7 21.8
13:25 1012 29.88 841 24.83 6.8 44.2 42 -5.2 22.7
13:30 1012 29.88 841 24.83 6.2 43.1 40 -6.3 20.7
13:35 1012 29.88 841 24.83 5.9 42.7 40 -6.5 20.3
13:40 1011 29.85 841 24.83 5.7 42.3 39 -7.2 19.1
13:45 1011 29.85 841 24.83 5.5 42 41 -6.6 20.2
13:50 1011 29.85 841 24.83 5.2 41.4 43 -6.4 20.5
13:55 1011 29.85 840 24.81 5 41.1 40 -7.4 18.8
14:00 1011 29.85 840 24.81 5.6 42.1 40 -7.1 19.3
14:05 1011 29.85 840 24.81 5.5 41.9 40 -7 19.5
14:10 1011 29.85 840 24.81 5.4 41.8 40 -7 19.4
14:15 1011 29.85 840 24.81 5.3 41.5 42 -6.6 20.1
14:20 1011 29.85 840 24.81 5.3 41.5 41 -6.8 19.8
14:25 1011 29.85 840 24.81 5.3 41.6 40 -7.3 18.8
14:30 1011 29.85 840 24.81 5.4 41.8 38 -7.7 18.1
14:35 1011 29.85 840 24.81 5.8 42.4 36 -8.3 17.1
14:40 1011 29.85 840 24.81 6 42.7 36 -8.1 17.4
14:45 1011 29.85 840 24.81 6.4 43.5 34 -8.2 17.3
14:50 1011 29.85 840 24.81 6.3 43.3 35 -8.2 17.3
14:55 1011 29.85 840 24.81 6.2 43.2 36 -7.8 18
15:00 1011 29.85 840 24.81 6 42.8 38 -7.1 19.2
15:05 1011 29.85 840 24.81 5.3 41.5 42 -6.7 19.9
15:10 1011 29.85 840 24.81 5.1 41.2 42 -6.8 19.7
15:15 1011 29.85 840 24.81 5.3 41.5 42 -6.7 19.9
15:20 1011 29.85 840 24.81 5 40.9 40 -7.5 18.5
15:25 1011 29.85 840 24.81 5.3 41.5 39 -7.5 18.5
15:30 1011 29.85 840 24.81 5.7 42.3 37 -7.9 17.7
15:35 1011 29.85 840 24.81 6.1 42.9 35 -8.2 17.2
15:40 1011 29.85 840 24.81 6.2 43.1 36 -7.9 17.7
15:45 1011 29.85 840 24.81 6.3 43.3 36 -7.6 18.2
15:50 1011 29.85 840 24.81 6.3 43.3 34 -8.4 16.9
15:55 1011 29.85 840 24.81 6.4 43.6 34 -8.2 17.3
16:00 1011 29.85 840 24.81 6.6 44 33 -8.4 16.8
16:05 1011 29.85 840 24.81 6.7 44.1 32 -8.8 16.1
16:10 1011 29.85 840 24.81 6.4 43.5 32 -9.2 15.4
16:15 1011 29.85 840 24.81 6.4 43.6 33 -8.8 16.2
16:20 1011 29.85 840 24.81 6.5 43.7 34 -8.4 16.8
16:25 1011 29.85 840 24.81 6.5 43.6 37 -7.1 19.2
16:30 1011 29.85 840 24.81 6.6 43.9 34 -8.1 17.4
16:35 1011 29.85 840 24.81 6.6 44 32 -8.9 16.1
16:40 1011 29.85 840 24.81 6.5 43.7 34 -8.4 16.9
16:45 1011 29.85 840 24.81 6.4 43.6 31 -9.3 15.2
16:50 1011 29.85 840 24.81 6.4 43.5 31 -9.6 14.8
16:55 1011 29.85 840 24.81 6.5 43.6 31 -9.4 15.1
17:00 1011 29.85 840 24.81 6.3 43.4 32 -9.3 15.3
17:05 1011 29.85 840 24.81 6.3 43.3 32 -9.2 15.4
17:10 1011 29.85 840 24.81 6.5 43.6 31 -9.5 14.9
17:15 1011 29.85 840 24.81 6.5 43.7 31 -9.3 15.3
17:20 1011 29.85 840 24.81 6.5 43.7 33 -8.7 16.4
17:25 1011 29.85 840 24.81 6 42.7 37 -7.7 18.1
17:30 1011 29.85 840 24.81 5.4 41.8 38 -7.8 18
17:35 1011 29.85 840 24.81 5.3 41.5 38 -7.9 17.7
17:40 1011 29.85 840 24.81 5.2 41.3 38 -8 17.7
17:45 1011 29.85 840 24.81 5.2 41.3 38 -8 17.5
17:50 1011 29.85 840 24.81 5.1 41.2 38 -7.9 17.7
17:55 1011 29.85 840 24.81 5.1 41.2 38 -7.9 17.7
18:00 1011 29.85 840 24.81 5.1 41.1 38 -8.1 17.5
18:05 1011 29.85 840 24.81 5.1 41.2 36 -8.9 16.1
18:10 1011 29.85 840 24.81 5.1 41.2 37 -8.3 17.1
18:15 1011 29.85 840 24.81 5.1 41.1 34 -9.5 14.9
18:20 1011 29.85 840 24.81 5.2 41.3 33 -9.9 14.3
18:25 1011 29.85 840 24.81 5.2 41.4 34 -9.4 15.1
18:30 1011 29.85 840 24.81 4.9 40.8 40 -7.5 18.4
18:35 1011 29.85 840 24.81 4.3 39.7 43 -7.1 19.2
18:40 1011 29.85 841 24.83 4.3 39.7 42 -7.4 18.7
18:45 1011 29.85 841 24.83 4.1 39.5 43 -7.3 18.9
18:50 1012 29.88 841 24.83 3.7 38.6 52 -5.2 22.6
18:55 1012 29.88 841 24.83 3.1 37.6 50 -6.2 20.8
19:00 1012 29.88 841 24.83 3.3 37.9 49 -6.3 20.6
19:05 1012 29.88 841 24.83 3.5 38.3 46 -7 19.4
19:10 1012 29.88 841 24.83 3.6 38.5 46 -7.1 19.2
19:15 1012 29.88 841 24.83 3.7 38.6 45 -7.2 19.1
19:20 1012 29.88 841 24.83 3.7 38.7 47 -6.6 20.1
19:25 1012 29.88 841 24.83 3.9 38.9 41 -8.3 17
19:30 1012 29.88 841 24.83 4.3 39.8 42 -7.6 18.3
19:35 1012 29.88 841 24.83 4.2 39.6 43 -7.3 18.9
19:40 1012 29.88 841 24.83 4.1 39.4 46 -6.5 20.2
19:45 1012 29.88 842 24.86 3.8 38.9 47 -6.6 20.1
19:50 1012 29.88 842 24.86 3.7 38.7 51 -5.5 22
19:55 1013 29.91 842 24.86 3.3 38 59 -3.9 25
20:00 1013 29.91 842 24.86 2.6 36.6 67 -2.9 26.7
20:05 1013 29.91 842 24.86 2.2 36 66 -3.4 25.9
20:10 1013 29.91 842 24.86 2.2 36 64 -3.9 25
20:15 1013 29.91 842 24.86 2.5 36.5 61 -4.4 24.2
20:20 1013 29.91 842 24.86 2.7 36.8 60 -4.4 24
20:25 1013 29.91 842 24.86 2.7 36.8 58 -4.7 23.5
20:30 1013 29.91 842 24.86 2.8 37 59 -4.4 24
20:35 1013 29.91 842 24.86 2.5 36.6 60 -4.5 23.9
20:40 1013 29.91 842 24.86 2.3 36.2 64 -3.9 25
20:45 1013 29.91 842 24.86 1.9 35.5 69 -3.2 26.2
20:50 1013 29.91 842 24.86 1.5 34.7 75 -2.5 27.6
20:55 1013 29.91 842 24.86 1.2 34.2 77 -2.4 27.6
21:00 1013 29.91 842 24.86 1.4 34.5 72 -3.1 26.4
21:05 1013 29.91 842 24.86 1.7 35.1 69 -3.3 26
21:10 1013 29.91 843 24.89 1.7 35.1 70 -3.2 26.2
21:15 1013 29.91 843 24.89 1 33.7 83 -1.6 29.2
21:20 1014 29.94 843 24.89 0.3 32.6 88 -1.5 29.3
21:25 1014 29.94 843 24.89 0.1 32.2 91 -1.2 29.9
21:30 1014 29.94 843 24.89 -0.1 31.9 91 -1.4 29.5
21:35 1014 29.94 843 24.89 -0 31.9 91 -1.3 29.6
21:40 1014 29.94 843 24.89 -0.1 31.8 91 -1.4 29.5
21:45 1014 29.94 843 24.89 -0.3 31.4 92 -1.4 29.4
21:50 1014 29.94 843 24.89 -0.5 31.1 93 -1.5 29.3
21:55 1014 29.94 843 24.89 -0.3 31.5 92 -1.4 29.4
22:00 1014 29.94 843 24.89 -0.4 31.2 92 -1.5 29.2
22:05 1014 29.94 843 24.89 -0.6 30.8 93 -1.6 29.1
22:10 1014 29.94 843 24.89 -0.5 31.1 92 -1.6 29.1
22:15 1014 29.94 843 24.89 -0.2 31.7 91 -1.5 29.3
22:20 1014 29.94 843 24.89 -0.1 31.8 90 -1.5 29.2
22:25 1014 29.94 843 24.89 -0.2 31.6 91 -1.5 29.2
22:30 1014 29.94 843 24.89 -0.4 31.3 91 -1.6 29
22:35 1014 29.94 843 24.89 -0.4 31.3 91 -1.6 29.1
22:40 1014 29.94 843 24.89 -0.4 31.3 92 -1.6 29.2
22:45 1014 29.94 843 24.89 -0.3 31.4 91 -1.7 29
22:50 1014 29.94 843 24.89 -0.4 31.3 90 -1.8 28.7
22:55 1014 29.94 843 24.89 -0.2 31.6 88 -2 28.3
23:00 1014 29.94 843 24.89 -0.4 31.3 87 -2.3 27.8
23:05 1014 29.94 843 24.89 -0.6 31 87 -2.5 27.5
23:10 1014 29.94 843 24.89 -0.6 31 86 -2.6 27.3
23:15 1014 29.94 843 24.89 -0.4 31.3 86 -2.4 27.6
23:20 1014 29.94 843 24.89 -0.7 30.8 90 -2.2 28.1
23:25 1014 29.94 843 24.89 -0.9 30.3 91 -2.2 28
23:30 1014 29.94 843 24.89 -1 30.2 91 -2.4 27.8
23:35 1014 29.94 843 24.89 -0.8 30.6 87 -2.7 27.2
23:40 1013 29.91 843 24.89 -0.8 30.6 85 -3 26.6
23:45 1013 29.91 843 24.89 -0.5 31.1 83 -3 26.6
23:50 1013 29.91 843 24.89 -0.5 31.2 83 -2.9 26.7
23:55 1014 29.94 843 24.89 -0.6 31 81 -3.4 25.8
24:00 1014 29.94 843 24.89 -0.5 31.1 81 -3.3 26.1